sensor_id;sensor_type;location;lat;lon;timestamp;temperature;humidity
52565;DHT22;38460;53.106;7.004;2023-06-24T00:01:37;17.10;99.90
52565;DHT22;38460;53.106;7.004;2023-06-24T00:04:04;17.00;99.90
52565;DHT22;38460;53.106;7.004;2023-06-24T00:06:29;17.00;99.90
52565;DHT22;38460;53.106;7.004;2023-06-24T00:08:55;17.00;99.90
52565;DHT22;38460;53.106;7.004;2023-06-24T00:11:29;17.00;99.90
52565;DHT22;38460;53.106;7.004;2023-06-24T00:13:55;16.90;99.90
52565;DHT22;38460;53.106;7.004;2023-06-24T00:16:21;16.90;99.90
52565;DHT22;38460;53.106;7.004;2023-06-24T00:18:56;16.90;99.90
52565;DHT22;38460;53.106;7.004;2023-06-24T00:21:26;16.80;99.90
52565;DHT22;38460;53.106;7.004;2023-06-24T00:23:57;16.80;99.90
52565;DHT22;38460;53.106;7.004;2023-06-24T00:26:24;16.80;99.90
52565;DHT22;38460;53.106;7.004;2023-06-24T00:28:50;16.80;99.90
52565;DHT22;38460;53.106;7.004;2023-06-24T00:31:16;16.70;99.90
52565;DHT22;38460;53.106;7.004;2023-06-24T00:33:42;16.70;99.90
52565;DHT22;38460;53.106;7.004;2023-06-24T00:36:08;16.70;99.90
52565;DHT22;38460;53.106;7.004;2023-06-24T00:38:37;16.70;99.90
52565;DHT22;38460;53.106;7.004;2023-06-24T00:41:03;16.60;99.90
52565;DHT22;38460;53.106;7.004;2023-06-24T00:43:29;16.60;99.90
52565;DHT22;38460;53.106;7.004;2023-06-24T00:45:56;16.60;99.90
52565;DHT22;38460;53.106;7.004;2023-06-24T00:48:22;16.60;99.90
52565;DHT22;38460;53.106;7.004;2023-06-24T00:50:49;16.60;99.90
52565;DHT22;38460;53.106;7.004;2023-06-24T00:53:18;16.50;99.90
52565;DHT22;38460;53.106;7.004;2023-06-24T00:55:45;16.50;99.90
52565;DHT22;38460;53.106;7.004;2023-06-24T00:58:11;16.50;99.90
52565;DHT22;38460;53.106;7.004;2023-06-24T01:00:42;16.50;99.90
52565;DHT22;38460;53.106;7.004;2023-06-24T01:03:10;16.50;99.90
52565;DHT22;38460;53.106;7.004;2023-06-24T01:05:44;16.50;99.90
52565;DHT22;38460;53.106;7.004;2023-06-24T01:08:10;16.50;99.90
52565;DHT22;38460;53.106;7.004;2023-06-24T01:10:41;16.50;99.90
52565;DHT22;38460;53.106;7.004;2023-06-24T01:13:07;16.40;99.90
52565;DHT22;38460;53.106;7.004;2023-06-24T01:15:33;16.40;99.90
52565;DHT22;38460;53.106;7.004;2023-06-24T01:18:19;16.40;99.90
52565;DHT22;38460;53.106;7.004;2023-06-24T01:21:01;16.30;99.90
52565;DHT22;38460;53.106;7.004;2023-06-24T01:26:42;16.30;99.90
52565;DHT22;38460;53.106;7.004;2023-06-24T01:34:55;16.20;99.90
52565;DHT22;38460;53.106;7.004;2023-06-24T01:37:37;16.20;99.90
52565;DHT22;38460;53.106;7.004;2023-06-24T01:40:19;16.10;99.90
52565;DHT22;38460;53.106;7.004;2023-06-24T01:42:47;16.10;99.90
52565;DHT22;38460;53.106;7.004;2023-06-24T01:45:19;16.10;99.90
52565;DHT22;38460;53.106;7.004;2023-06-24T01:47:48;16.10;99.90
52565;DHT22;38460;53.106;7.004;2023-06-24T01:50:20;16.10;99.90
52565;DHT22;38460;53.106;7.004;2023-06-24T01:52:50;16.00;99.90
52565;DHT22;38460;53.106;7.004;2023-06-24T01:55:19;16.00;99.90
52565;DHT22;38460;53.106;7.004;2023-06-24T01:57:46;16.00;99.90
52565;DHT22;38460;53.106;7.004;2023-06-24T02:00:14;16.00;99.90
52565;DHT22;38460;53.106;7.004;2023-06-24T02:02:41;16.00;99.90
52565;DHT22;38460;53.106;7.004;2023-06-24T02:05:09;16.00;99.90
52565;DHT22;38460;53.106;7.004;2023-06-24T02:07:36;16.00;99.90
52565;DHT22;38460;53.106;7.004;2023-06-24T02:10:03;16.00;99.90
52565;DHT22;38460;53.106;7.004;2023-06-24T02:12:30;16.00;99.90
52565;DHT22;38460;53.106;7.004;2023-06-24T02:14:56;16.00;99.90
52565;DHT22;38460;53.106;7.004;2023-06-24T02:17:24;16.00;99.90
52565;DHT22;38460;53.106;7.004;2023-06-24T02:19:51;16.00;99.90
52565;DHT22;38460;53.106;7.004;2023-06-24T02:22:18;16.00;99.90
52565;DHT22;38460;53.106;7.004;2023-06-24T02:24:46;15.90;99.90
52565;DHT22;38460;53.106;7.004;2023-06-24T02:27:13;15.90;99.90
52565;DHT22;38460;53.106;7.004;2023-06-24T02:29:40;15.90;99.90
52565;DHT22;38460;53.106;7.004;2023-06-24T02:32:06;15.90;99.90
52565;DHT22;38460;53.106;7.004;2023-06-24T02:34:32;15.90;99.90
52565;DHT22;38460;53.106;7.004;2023-06-24T02:36:58;15.80;99.90
52565;DHT22;38460;53.106;7.004;2023-06-24T02:39:24;15.80;99.90
52565;DHT22;38460;53.106;7.004;2023-06-24T02:41:50;15.80;99.90
52565;DHT22;38460;53.106;7.004;2023-06-24T02:44:16;15.80;99.90
52565;DHT22;38460;53.106;7.004;2023-06-24T02:46:43;15.80;99.90
52565;DHT22;38460;53.106;7.004;2023-06-24T02:49:12;15.80;99.90
52565;DHT22;38460;53.106;7.004;2023-06-24T02:51:39;15.70;99.90
52565;DHT22;38460;53.106;7.004;2023-06-24T02:54:06;15.70;99.90
52565;DHT22;38460;53.106;7.004;2023-06-24T02:56:32;15.70;99.90
52565;DHT22;38460;53.106;7.004;2023-06-24T02:58:58;15.70;99.90
52565;DHT22;38460;53.106;7.004;2023-06-24T03:01:25;15.70;99.90
52565;DHT22;38460;53.106;7.004;2023-06-24T03:03:55;15.70;99.90
52565;DHT22;38460;53.106;7.004;2023-06-24T03:06:22;15.70;99.90
52565;DHT22;38460;53.106;7.004;2023-06-24T03:08:49;15.70;99.90
52565;DHT22;38460;53.106;7.004;2023-06-24T03:11:16;15.70;99.90
52565;DHT22;38460;53.106;7.004;2023-06-24T03:13:42;15.70;99.90
52565;DHT22;38460;53.106;7.004;2023-06-24T03:16:08;15.60;99.90
52565;DHT22;38460;53.106;7.004;2023-06-24T03:18:41;15.60;99.90
52565;DHT22;38460;53.106;7.004;2023-06-24T03:21:08;15.60;99.90
52565;DHT22;38460;53.106;7.004;2023-06-24T03:23:34;15.60;99.90
52565;DHT22;38460;53.106;7.004;2023-06-24T03:26:00;15.60;99.90
52565;DHT22;38460;53.106;7.004;2023-06-24T03:28:25;15.60;99.90
52565;DHT22;38460;53.106;7.004;2023-06-24T03:30:52;15.60;99.90
52565;DHT22;38460;53.106;7.004;2023-06-24T03:33:17;15.60;99.90
52565;DHT22;38460;53.106;7.004;2023-06-24T03:35:44;15.60;99.90
52565;DHT22;38460;53.106;7.004;2023-06-24T03:38:09;15.60;99.90
52565;DHT22;38460;53.106;7.004;2023-06-24T03:40:35;15.60;99.90
52565;DHT22;38460;53.106;7.004;2023-06-24T03:43:01;15.70;99.90
52565;DHT22;38460;53.106;7.004;2023-06-24T03:45:26;15.70;99.90
52565;DHT22;38460;53.106;7.004;2023-06-24T03:47:52;15.70;99.90
52565;DHT22;38460;53.106;7.004;2023-06-24T03:50:18;15.70;99.90
52565;DHT22;38460;53.106;7.004;2023-06-24T03:52:43;15.70;99.90
52565;DHT22;38460;53.106;7.004;2023-06-24T03:55:10;15.70;99.90
52565;DHT22;38460;53.106;7.004;2023-06-24T03:57:37;15.70;99.90
52565;DHT22;38460;53.106;7.004;2023-06-24T04:00:03;15.70;99.90
52565;DHT22;38460;53.106;7.004;2023-06-24T04:02:41;15.70;99.90
52565;DHT22;38460;53.106;7.004;2023-06-24T04:05:08;15.70;99.90
52565;DHT22;38460;53.106;7.004;2023-06-24T04:07:34;15.70;99.90
52565;DHT22;38460;53.106;7.004;2023-06-24T04:10:02;15.70;99.90
52565;DHT22;38460;53.106;7.004;2023-06-24T04:12:29;15.70;99.90
52565;DHT22;38460;53.106;7.004;2023-06-24T04:14:55;15.70;99.90
52565;DHT22;38460;53.106;7.004;2023-06-24T04:17:21;15.70;99.90
52565;DHT22;38460;53.106;7.004;2023-06-24T04:19:47;15.80;99.90
52565;DHT22;38460;53.106;7.004;2023-06-24T04:22:12;15.80;99.90
52565;DHT22;38460;53.106;7.004;2023-06-24T04:24:38;15.80;99.90
52565;DHT22;38460;53.106;7.004;2023-06-24T04:27:07;15.80;99.90
52565;DHT22;38460;53.106;7.004;2023-06-24T04:29:33;15.80;99.90
52565;DHT22;38460;53.106;7.004;2023-06-24T04:31:58;15.80;99.90
52565;DHT22;38460;53.106;7.004;2023-06-24T04:34:24;15.90;99.90
52565;DHT22;38460;53.106;7.004;2023-06-24T04:36:50;15.90;99.90
52565;DHT22;38460;53.106;7.004;2023-06-24T04:39:15;15.90;99.90
52565;DHT22;38460;53.106;7.004;2023-06-24T04:41:41;16.00;99.90
52565;DHT22;38460;53.106;7.004;2023-06-24T04:44:07;16.00;99.90
52565;DHT22;38460;53.106;7.004;2023-06-24T04:46:32;16.00;99.90
52565;DHT22;38460;53.106;7.004;2023-06-24T04:49:00;16.00;99.90
52565;DHT22;38460;53.106;7.004;2023-06-24T04:51:26;16.00;99.90
52565;DHT22;38460;53.106;7.004;2023-06-24T04:53:51;16.10;99.90
52565;DHT22;38460;53.106;7.004;2023-06-24T04:56:17;16.10;99.90
52565;DHT22;38460;53.106;7.004;2023-06-24T04:58:43;16.10;99.90
52565;DHT22;38460;53.106;7.004;2023-06-24T05:01:10;16.20;99.90
52565;DHT22;38460;53.106;7.004;2023-06-24T05:03:35;16.20;99.90
52565;DHT22;38460;53.106;7.004;2023-06-24T05:06:01;16.20;99.90
52565;DHT22;38460;53.106;7.004;2023-06-24T05:08:27;16.30;99.90
52565;DHT22;38460;53.106;7.004;2023-06-24T05:10:52;16.30;99.90
52565;DHT22;38460;53.106;7.004;2023-06-24T05:13:18;16.30;99.90
52565;DHT22;38460;53.106;7.004;2023-06-24T05:15:44;16.40;99.90
52565;DHT22;38460;53.106;7.004;2023-06-24T05:18:10;16.40;99.90
52565;DHT22;38460;53.106;7.004;2023-06-24T05:20:35;16.40;99.90
52565;DHT22;38460;53.106;7.004;2023-06-24T05:23:01;16.50;99.90
52565;DHT22;38460;53.106;7.004;2023-06-24T05:25:27;16.50;99.90
52565;DHT22;38460;53.106;7.004;2023-06-24T05:27:53;16.50;99.90
52565;DHT22;38460;53.106;7.004;2023-06-24T05:30:18;16.60;99.90
52565;DHT22;38460;53.106;7.004;2023-06-24T05:32:44;16.60;99.90
52565;DHT22;38460;53.106;7.004;2023-06-24T05:35:10;16.70;99.90
52565;DHT22;38460;53.106;7.004;2023-06-24T05:37:35;16.70;99.90
52565;DHT22;38460;53.106;7.004;2023-06-24T05:40:02;16.80;99.90
52565;DHT22;38460;53.106;7.004;2023-06-24T05:42:28;16.80;99.90
52565;DHT22;38460;53.106;7.004;2023-06-24T05:44:54;16.90;99.90
52565;DHT22;38460;53.106;7.004;2023-06-24T05:47:20;16.90;99.90
52565;DHT22;38460;53.106;7.004;2023-06-24T05:49:45;17.00;99.90
52565;DHT22;38460;53.106;7.004;2023-06-24T05:52:12;17.00;99.90
52565;DHT22;38460;53.106;7.004;2023-06-24T05:54:37;17.10;99.90
52565;DHT22;38460;53.106;7.004;2023-06-24T05:57:03;17.20;99.90
52565;DHT22;38460;53.106;7.004;2023-06-24T05:59:33;17.20;99.90
52565;DHT22;38460;53.106;7.004;2023-06-24T06:01:59;17.30;99.90
52565;DHT22;38460;53.106;7.004;2023-06-24T06:04:29;17.40;99.90
52565;DHT22;38460;53.106;7.004;2023-06-24T06:06:55;17.50;99.90
52565;DHT22;38460;53.106;7.004;2023-06-24T06:09:22;17.50;99.90
52565;DHT22;38460;53.106;7.004;2023-06-24T06:11:48;17.60;99.90
52565;DHT22;38460;53.106;7.004;2023-06-24T06:14:14;17.60;99.90
52565;DHT22;38460;53.106;7.004;2023-06-24T06:16:40;17.70;99.90
52565;DHT22;38460;53.106;7.004;2023-06-24T06:19:05;17.80;99.90
52565;DHT22;38460;53.106;7.004;2023-06-24T06:21:31;17.80;99.90
52565;DHT22;38460;53.106;7.004;2023-06-24T06:23:57;17.90;99.90
52565;DHT22;38460;53.106;7.004;2023-06-24T06:26:23;17.90;99.90
52565;DHT22;38460;53.106;7.004;2023-06-24T06:28:49;18.00;99.90
52565;DHT22;38460;53.106;7.004;2023-06-24T06:31:15;18.00;99.90
52565;DHT22;38460;53.106;7.004;2023-06-24T06:33:42;18.10;99.90
52565;DHT22;38460;53.106;7.004;2023-06-24T06:36:08;18.20;99.90
52565;DHT22;38460;53.106;7.004;2023-06-24T06:38:34;18.20;99.90
52565;DHT22;38460;53.106;7.004;2023-06-24T06:41:00;18.30;99.90
52565;DHT22;38460;53.106;7.004;2023-06-24T06:43:26;18.40;99.90
52565;DHT22;38460;53.106;7.004;2023-06-24T06:45:52;18.50;99.90
52565;DHT22;38460;53.106;7.004;2023-06-24T06:48:17;18.50;99.90
52565;DHT22;38460;53.106;7.004;2023-06-24T06:50:44;18.60;99.90
52565;DHT22;38460;53.106;7.004;2023-06-24T06:53:10;18.70;99.90
52565;DHT22;38460;53.106;7.004;2023-06-24T06:55:36;18.80;99.90
52565;DHT22;38460;53.106;7.004;2023-06-24T06:58:04;18.90;99.90
52565;DHT22;38460;53.106;7.004;2023-06-24T07:00:30;19.00;99.90
52565;DHT22;38460;53.106;7.004;2023-06-24T07:02:56;19.10;99.90
52565;DHT22;38460;53.106;7.004;2023-06-24T07:05:22;19.20;99.90
52565;DHT22;38460;53.106;7.004;2023-06-24T07:07:47;19.30;99.90
52565;DHT22;38460;53.106;7.004;2023-06-24T07:10:15;19.40;99.90
52565;DHT22;38460;53.106;7.004;2023-06-24T07:12:42;19.50;99.90
52565;DHT22;38460;53.106;7.004;2023-06-24T07:15:08;19.60;99.90
52565;DHT22;38460;53.106;7.004;2023-06-24T07:17:34;19.70;99.90
52565;DHT22;38460;53.106;7.004;2023-06-24T07:20:00;19.80;99.90
52565;DHT22;38460;53.106;7.004;2023-06-24T07:22:26;19.80;99.90
52565;DHT22;38460;53.106;7.004;2023-06-24T07:24:51;19.90;99.90
52565;DHT22;38460;53.106;7.004;2023-06-24T07:27:17;20.00;99.90
52565;DHT22;38460;53.106;7.004;2023-06-24T07:29:43;20.00;99.90
52565;DHT22;38460;53.106;7.004;2023-06-24T07:32:09;20.10;99.90
52565;DHT22;38460;53.106;7.004;2023-06-24T07:34:36;20.10;99.90
52565;DHT22;38460;53.106;7.004;2023-06-24T07:37:02;20.20;99.90
52565;DHT22;38460;53.106;7.004;2023-06-24T07:39:27;20.30;99.90
52565;DHT22;38460;53.106;7.004;2023-06-24T07:41:53;20.40;99.90
52565;DHT22;38460;53.106;7.004;2023-06-24T07:44:19;20.50;99.90
52565;DHT22;38460;53.106;7.004;2023-06-24T07:46:45;20.60;99.90
52565;DHT22;38460;53.106;7.004;2023-06-24T07:49:10;20.60;99.90
52565;DHT22;38460;53.106;7.004;2023-06-24T07:51:36;20.70;99.90
52565;DHT22;38460;53.106;7.004;2023-06-24T07:54:02;20.80;99.90
52565;DHT22;38460;53.106;7.004;2023-06-24T07:56:27;20.90;99.90
52565;DHT22;38460;53.106;7.004;2023-06-24T07:58:53;21.00;99.90
52565;DHT22;38460;53.106;7.004;2023-06-24T08:01:19;21.10;99.90
52565;DHT22;38460;53.106;7.004;2023-06-24T08:03:45;21.20;99.90
52565;DHT22;38460;53.106;7.004;2023-06-24T08:06:10;21.30;99.90
52565;DHT22;38460;53.106;7.004;2023-06-24T08:08:36;21.40;99.90
52565;DHT22;38460;53.106;7.004;2023-06-24T08:11:03;21.50;99.90
52565;DHT22;38460;53.106;7.004;2023-06-24T08:13:29;21.60;99.90
52565;DHT22;38460;53.106;7.004;2023-06-24T08:15:56;21.60;99.90
52565;DHT22;38460;53.106;7.004;2023-06-24T08:18:21;21.70;99.90
52565;DHT22;38460;53.106;7.004;2023-06-24T08:20:47;21.70;99.90
52565;DHT22;38460;53.106;7.004;2023-06-24T08:23:13;21.80;99.90
52565;DHT22;38460;53.106;7.004;2023-06-24T08:25:38;21.80;99.90
52565;DHT22;38460;53.106;7.004;2023-06-24T08:28:04;21.80;99.90
52565;DHT22;38460;53.106;7.004;2023-06-24T08:30:30;21.90;99.90
52565;DHT22;38460;53.106;7.004;2023-06-24T08:32:56;22.00;99.90
52565;DHT22;38460;53.106;7.004;2023-06-24T08:35:22;22.10;99.90
52565;DHT22;38460;53.106;7.004;2023-06-24T08:37:47;22.20;99.90
52565;DHT22;38460;53.106;7.004;2023-06-24T08:40:13;22.30;99.90
52565;DHT22;38460;53.106;7.004;2023-06-24T08:42:39;22.40;99.90
52565;DHT22;38460;53.106;7.004;2023-06-24T08:45:05;22.50;99.90
52565;DHT22;38460;53.106;7.004;2023-06-24T08:47:31;22.60;99.90
52565;DHT22;38460;53.106;7.004;2023-06-24T08:50:12;22.60;99.90
52565;DHT22;38460;53.106;7.004;2023-06-24T08:52:42;22.80;99.90
52565;DHT22;38460;53.106;7.004;2023-06-24T08:55:12;22.80;99.90
52565;DHT22;38460;53.106;7.004;2023-06-24T08:57:39;22.90;99.90
52565;DHT22;38460;53.106;7.004;2023-06-24T09:00:06;22.90;99.90
52565;DHT22;38460;53.106;7.004;2023-06-24T09:02:35;23.00;99.90
52565;DHT22;38460;53.106;7.004;2023-06-24T09:05:07;23.10;99.90
52565;DHT22;38460;53.106;7.004;2023-06-24T09:07:33;23.10;99.90
52565;DHT22;38460;53.106;7.004;2023-06-24T09:09:59;23.20;99.90
52565;DHT22;38460;53.106;7.004;2023-06-24T09:12:26;23.20;99.90
52565;DHT22;38460;53.106;7.004;2023-06-24T09:14:52;23.30;99.90
52565;DHT22;38460;53.106;7.004;2023-06-24T09:17:18;23.30;99.90
52565;DHT22;38460;53.106;7.004;2023-06-24T09:19:48;23.30;99.90
52565;DHT22;38460;53.106;7.004;2023-06-24T09:22:14;23.40;99.90
52565;DHT22;38460;53.106;7.004;2023-06-24T09:24:44;23.50;99.90
52565;DHT22;38460;53.106;7.004;2023-06-24T09:27:13;23.50;99.90
52565;DHT22;38460;53.106;7.004;2023-06-24T09:29:41;23.60;99.90
52565;DHT22;38460;53.106;7.004;2023-06-24T09:32:07;23.70;99.90
52565;DHT22;38460;53.106;7.004;2023-06-24T09:34:34;23.70;99.90
52565;DHT22;38460;53.106;7.004;2023-06-24T09:37:00;23.70;99.90
52565;DHT22;38460;53.106;7.004;2023-06-24T09:39:27;23.70;99.90
52565;DHT22;38460;53.106;7.004;2023-06-24T09:41:56;23.70;99.90
52565;DHT22;38460;53.106;7.004;2023-06-24T09:44:22;23.70;99.90
52565;DHT22;38460;53.106;7.004;2023-06-24T09:46:48;23.80;99.90
52565;DHT22;38460;53.106;7.004;2023-06-24T09:49:14;23.80;99.90
52565;DHT22;38460;53.106;7.004;2023-06-24T09:51:44;23.80;99.90
52565;DHT22;38460;53.106;7.004;2023-06-24T09:54:11;24.00;99.90
52565;DHT22;38460;53.106;7.004;2023-06-24T09:57:01;24.00;99.90
52565;DHT22;38460;53.106;7.004;2023-06-24T09:59:25;24.10;99.90
52565;DHT22;38460;53.106;7.004;2023-06-24T10:01:53;24.10;99.90
52565;DHT22;38460;53.106;7.004;2023-06-24T10:04:20;24.10;99.90
52565;DHT22;38460;53.106;7.004;2023-06-24T10:06:47;24.20;99.90
52565;DHT22;38460;53.106;7.004;2023-06-24T10:09:14;24.20;99.90
52565;DHT22;38460;53.106;7.004;2023-06-24T10:11:46;24.30;99.90
52565;DHT22;38460;53.106;7.004;2023-06-24T10:14:12;24.30;99.90
52565;DHT22;38460;53.106;7.004;2023-06-24T10:16:38;24.40;99.90
52565;DHT22;38460;53.106;7.004;2023-06-24T10:19:04;24.40;99.90
52565;DHT22;38460;53.106;7.004;2023-06-24T10:21:53;24.40;99.90
52565;DHT22;38460;53.106;7.004;2023-06-24T10:24:35;24.40;99.90
52565;DHT22;38460;53.106;7.004;2023-06-24T10:29:37;24.60;99.90
52565;DHT22;38460;53.106;7.004;2023-06-24T10:32:07;24.60;99.90
52565;DHT22;38460;53.106;7.004;2023-06-24T10:47:39;24.80;99.10
52565;DHT22;38460;53.106;7.004;2023-06-24T10:50:05;24.80;99.30
52565;DHT22;38460;53.106;7.004;2023-06-24T10:52:32;24.90;99.50
52565;DHT22;38460;53.106;7.004;2023-06-24T10:54:58;25.00;99.50
52565;DHT22;38460;53.106;7.004;2023-06-24T10:57:25;25.10;99.50
52565;DHT22;38460;53.106;7.004;2023-06-24T10:59:56;25.20;99.60
52565;DHT22;38460;53.106;7.004;2023-06-24T11:02:24;25.20;99.20
52565;DHT22;38460;53.106;7.004;2023-06-24T11:07:21;25.30;99.30
52565;DHT22;38460;53.106;7.004;2023-06-24T11:09:51;25.40;99.00
52565;DHT22;38460;53.106;7.004;2023-06-24T11:12:18;25.50;99.20
52565;DHT22;38460;53.106;7.004;2023-06-24T11:14:44;25.50;98.00
52565;DHT22;38460;53.106;7.004;2023-06-24T11:17:10;25.60;98.20
52565;DHT22;38460;53.106;7.004;2023-06-24T11:19:36;25.70;98.50
52565;DHT22;38460;53.106;7.004;2023-06-24T11:22:05;25.80;98.60
52565;DHT22;38460;53.106;7.004;2023-06-24T11:24:32;26.00;98.80
52565;DHT22;38460;53.106;7.004;2023-06-24T11:26:58;26.00;98.30
52565;DHT22;38460;53.106;7.004;2023-06-24T11:29:24;26.10;98.00
52565;DHT22;38460;53.106;7.004;2023-06-24T11:31:50;26.20;98.00
52565;DHT22;38460;53.106;7.004;2023-06-24T11:34:17;26.30;97.60
52565;DHT22;38460;53.106;7.004;2023-06-24T11:36:43;26.30;97.20
52565;DHT22;38460;53.106;7.004;2023-06-24T11:39:19;26.40;97.50
52565;DHT22;38460;53.106;7.004;2023-06-24T11:41:45;26.50;97.40
52565;DHT22;38460;53.106;7.004;2023-06-24T11:44:10;26.60;97.80
52565;DHT22;38460;53.106;7.004;2023-06-24T11:46:37;26.70;97.40
52565;DHT22;38460;53.106;7.004;2023-06-24T11:49:07;26.80;97.00
52565;DHT22;38460;53.106;7.004;2023-06-24T11:51:34;27.00;96.80
52565;DHT22;38460;53.106;7.004;2023-06-24T11:54:02;27.10;96.20
52565;DHT22;38460;53.106;7.004;2023-06-24T11:56:37;27.00;95.10
52565;DHT22;38460;53.106;7.004;2023-06-24T11:59:16;27.00;95.00
52565;DHT22;38460;53.106;7.004;2023-06-24T12:01:43;26.90;95.10
52565;DHT22;38460;53.106;7.004;2023-06-24T12:04:11;26.90;95.10
52565;DHT22;38460;53.106;7.004;2023-06-24T12:06:37;27.00;95.40
52565;DHT22;38460;53.106;7.004;2023-06-24T12:09:03;27.10;95.30
52565;DHT22;38460;53.106;7.004;2023-06-24T12:11:28;27.10;95.10
52565;DHT22;38460;53.106;7.004;2023-06-24T12:13:54;27.00;93.90
52565;DHT22;38460;53.106;7.004;2023-06-24T12:16:20;27.00;94.00
52565;DHT22;38460;53.106;7.004;2023-06-24T12:18:46;26.90;93.90
52565;DHT22;38460;53.106;7.004;2023-06-24T12:21:11;26.90;93.80
52565;DHT22;38460;53.106;7.004;2023-06-24T12:23:37;27.00;94.00
52565;DHT22;38460;53.106;7.004;2023-06-24T12:26:03;27.10;94.50
52565;DHT22;38460;53.106;7.004;2023-06-24T12:28:29;27.20;94.40
52565;DHT22;38460;53.106;7.004;2023-06-24T12:30:54;27.30;94.30
52565;DHT22;38460;53.106;7.004;2023-06-24T12:33:20;27.30;94.60
52565;DHT22;38460;53.106;7.004;2023-06-24T12:35:48;27.40;94.70
52565;DHT22;38460;53.106;7.004;2023-06-24T12:38:14;27.40;93.90
52565;DHT22;38460;53.106;7.004;2023-06-24T12:40:41;27.40;93.50
52565;DHT22;38460;53.106;7.004;2023-06-24T12:43:07;27.50;93.20
52565;DHT22;38460;53.106;7.004;2023-06-24T12:45:33;27.40;92.80
52565;DHT22;38460;53.106;7.004;2023-06-24T12:47:59;27.30;92.70
52565;DHT22;38460;53.106;7.004;2023-06-24T12:50:25;27.20;92.80
52565;DHT22;38460;53.106;7.004;2023-06-24T12:52:51;27.20;93.70
52565;DHT22;38460;53.106;7.004;2023-06-24T12:55:17;27.10;93.40
52565;DHT22;38460;53.106;7.004;2023-06-24T12:57:43;27.10;93.50
52565;DHT22;38460;53.106;7.004;2023-06-24T13:00:09;27.10;94.00
52565;DHT22;38460;53.106;7.004;2023-06-24T13:02:38;27.10;94.30
52565;DHT22;38460;53.106;7.004;2023-06-24T13:05:04;27.10;93.90
52565;DHT22;38460;53.106;7.004;2023-06-24T13:07:30;27.00;94.00
52565;DHT22;38460;53.106;7.004;2023-06-24T13:09:56;27.00;94.50
52565;DHT22;38460;53.106;7.004;2023-06-24T13:12:22;27.00;94.00
52565;DHT22;38460;53.106;7.004;2023-06-24T13:14:48;27.10;93.60
52565;DHT22;38460;53.106;7.004;2023-06-24T13:17:13;27.20;93.50
52565;DHT22;38460;53.106;7.004;2023-06-24T13:19:39;27.20;93.30
52565;DHT22;38460;53.106;7.004;2023-06-24T13:22:05;27.20;93.00
52565;DHT22;38460;53.106;7.004;2023-06-24T13:24:31;27.20;93.30
52565;DHT22;38460;53.106;7.004;2023-06-24T13:26:56;27.20;93.00
52565;DHT22;38460;53.106;7.004;2023-06-24T13:29:22;27.30;93.10
52565;DHT22;38460;53.106;7.004;2023-06-24T13:31:48;27.50;94.00
52565;DHT22;38460;53.106;7.004;2023-06-24T13:34:14;27.80;93.40
52565;DHT22;38460;53.106;7.004;2023-06-24T13:36:39;27.90;93.00
52565;DHT22;38460;53.106;7.004;2023-06-24T13:39:08;28.00;92.90
52565;DHT22;38460;53.106;7.004;2023-06-24T13:41:34;27.90;92.80
52565;DHT22;38460;53.106;7.004;2023-06-24T13:44:03;27.80;92.90
52565;DHT22;38460;53.106;7.004;2023-06-24T13:46:30;27.70;92.80
52565;DHT22;38460;53.106;7.004;2023-06-24T13:48:57;27.60;93.50
52565;DHT22;38460;53.106;7.004;2023-06-24T13:51:24;27.60;93.70
52565;DHT22;38460;53.106;7.004;2023-06-24T13:53:51;27.50;93.50
52565;DHT22;38460;53.106;7.004;2023-06-24T13:56:19;27.40;94.10
52565;DHT22;38460;53.106;7.004;2023-06-24T13:58:45;27.40;94.00
52565;DHT22;38460;53.106;7.004;2023-06-24T14:01:11;27.30;94.10
52565;DHT22;38460;53.106;7.004;2023-06-24T14:03:38;27.20;93.80
52565;DHT22;38460;53.106;7.004;2023-06-24T14:06:04;27.20;93.90
52565;DHT22;38460;53.106;7.004;2023-06-24T14:08:30;27.10;93.70
52565;DHT22;38460;53.106;7.004;2023-06-24T14:10:57;27.10;93.60
52565;DHT22;38460;53.106;7.004;2023-06-24T14:13:24;27.00;93.80
52565;DHT22;38460;53.106;7.004;2023-06-24T14:15:50;26.90;94.40
52565;DHT22;38460;53.106;7.004;2023-06-24T14:18:15;26.80;95.40
52565;DHT22;38460;53.106;7.004;2023-06-24T14:20:41;26.50;96.40
52565;DHT22;38460;53.106;7.004;2023-06-24T14:23:07;26.40;97.50
52565;DHT22;38460;53.106;7.004;2023-06-24T14:25:33;26.20;98.30
52565;DHT22;38460;53.106;7.004;2023-06-24T14:27:59;26.10;98.80
52565;DHT22;38460;53.106;7.004;2023-06-24T14:30:24;26.00;99.60
52565;DHT22;38460;53.106;7.004;2023-06-24T14:32:50;25.90;99.70
52565;DHT22;38460;53.106;7.004;2023-06-24T14:35:16;26.00;99.90
52565;DHT22;38460;53.106;7.004;2023-06-24T14:37:42;25.90;99.90
52565;DHT22;38460;53.106;7.004;2023-06-24T14:40:08;25.90;99.90
52565;DHT22;38460;53.106;7.004;2023-06-24T14:42:35;25.80;99.90
52565;DHT22;38460;53.106;7.004;2023-06-24T14:45:01;25.80;99.90
52565;DHT22;38460;53.106;7.004;2023-06-24T14:47:27;25.80;99.90
52565;DHT22;38460;53.106;7.004;2023-06-24T14:49:53;25.80;99.90
52565;DHT22;38460;53.106;7.004;2023-06-24T14:52:18;25.80;99.90
52565;DHT22;38460;53.106;7.004;2023-06-24T14:54:46;25.80;99.90
52565;DHT22;38460;53.106;7.004;2023-06-24T14:57:12;25.80;99.90
52565;DHT22;38460;53.106;7.004;2023-06-24T14:59:38;25.90;99.90
52565;DHT22;38460;53.106;7.004;2023-06-24T15:02:04;26.10;99.90
52565;DHT22;38460;53.106;7.004;2023-06-24T15:04:30;26.10;99.90
52565;DHT22;38460;53.106;7.004;2023-06-24T15:06:56;26.10;99.90
52565;DHT22;38460;53.106;7.004;2023-06-24T15:09:23;26.10;99.90
52565;DHT22;38460;53.106;7.004;2023-06-24T15:11:49;26.10;99.90
52565;DHT22;38460;53.106;7.004;2023-06-24T15:14:14;26.10;99.90
52565;DHT22;38460;53.106;7.004;2023-06-24T15:16:40;26.10;99.90
52565;DHT22;38460;53.106;7.004;2023-06-24T15:19:06;26.10;99.90
52565;DHT22;38460;53.106;7.004;2023-06-24T15:21:31;26.30;99.90
52565;DHT22;38460;53.106;7.004;2023-06-24T15:23:57;26.50;99.90
52565;DHT22;38460;53.106;7.004;2023-06-24T15:26:23;26.80;99.90
52565;DHT22;38460;53.106;7.004;2023-06-24T15:28:49;27.10;99.90
52565;DHT22;38460;53.106;7.004;2023-06-24T15:31:14;27.20;99.90
52565;DHT22;38460;53.106;7.004;2023-06-24T15:33:40;27.20;99.30
52565;DHT22;38460;53.106;7.004;2023-06-24T15:36:06;27.30;99.50
52565;DHT22;38460;53.106;7.004;2023-06-24T15:38:32;27.30;98.90
52565;DHT22;38460;53.106;7.004;2023-06-24T15:40:58;27.40;98.70
52565;DHT22;38460;53.106;7.004;2023-06-24T15:43:24;27.30;97.90
52565;DHT22;38460;53.106;7.004;2023-06-24T15:45:50;27.20;97.30
52565;DHT22;38460;53.106;7.004;2023-06-24T15:48:16;27.10;97.40
52565;DHT22;38460;53.106;7.004;2023-06-24T15:50:42;26.90;97.00
52565;DHT22;38460;53.106;7.004;2023-06-24T15:53:08;26.60;96.90
52565;DHT22;38460;53.106;7.004;2023-06-24T15:55:34;26.50;97.20